地図

経路データ

SID SEASON NUMBER BASIN SUBBASIN NAME ISO_TIME NATURE LAT LON WMO_WIND WMO_PRES WMO_AGENCY TRACK_TYPE DIST2LAND LANDFALL IFLAG USA_AGENCY USA_ATCF_ID USA_LAT USA_LON USA_RECORD USA_STATUS USA_WIND USA_PRES USA_SSHS USA_R34_NE USA_R34_SE USA_R34_SW USA_R34_NW USA_R50_NE USA_R50_SE USA_R50_SW USA_R50_NW USA_R64_NE USA_R64_SE USA_R64_SW USA_R64_NW USA_POCI USA_ROCI USA_RMW USA_EYE TOKYO_LAT TOKYO_LON TOKYO_GRADE TOKYO_WIND TOKYO_PRES TOKYO_R50_DIR TOKYO_R50_LONG TOKYO_R50_SHORT TOKYO_R30_DIR TOKYO_R30_LONG TOKYO_R30_SHORT TOKYO_LAND CMA_LAT CMA_LON CMA_CAT CMA_WIND CMA_PRES HKO_LAT HKO_LON HKO_CAT HKO_WIND HKO_PRES NEWDELHI_LAT NEWDELHI_LON NEWDELHI_GRADE NEWDELHI_WIND NEWDELHI_PRES NEWDELHI_CI NEWDELHI_DP NEWDELHI_POCI REUNION_LAT REUNION_LON REUNION_TYPE REUNION_WIND REUNION_PRES REUNION_TNUM REUNION_CI REUNION_RMW REUNION_R34_NE REUNION_R34_SE REUNION_R34_SW REUNION_R34_NW REUNION_R50_NE REUNION_R50_SE REUNION_R50_SW REUNION_R50_NW REUNION_R64_NE REUNION_R64_SE REUNION_R64_SW REUNION_R64_NW BOM_LAT BOM_LON BOM_TYPE BOM_WIND BOM_PRES BOM_TNUM BOM_CI BOM_RMW BOM_R34_NE BOM_R34_SE BOM_R34_SW BOM_R34_NW BOM_R50_NE BOM_R50_SE BOM_R50_SW BOM_R50_NW BOM_R64_NE BOM_R64_SE BOM_R64_SW BOM_R64_NW BOM_ROCI BOM_POCI BOM_EYE BOM_POS_METHOD BOM_PRES_METHOD NADI_LAT NADI_LON NADI_CAT NADI_WIND NADI_PRES WELLINGTON_LAT WELLINGTON_LON WELLINGTON_WIND WELLINGTON_PRES DS824_LAT DS824_LON DS824_STAGE DS824_WIND DS824_PRES TD9636_LAT TD9636_LON TD9636_STAGE TD9636_WIND TD9636_PRES TD9635_LAT TD9635_LON TD9635_WIND TD9635_PRES TD9635_ROCI NEUMANN_LAT NEUMANN_LON NEUMANN_CLASS NEUMANN_WIND NEUMANN_PRES MLC_LAT MLC_LON MLC_CLASS MLC_WIND MLC_PRES USA_GUST BOM_GUST BOM_GUST_PER REUNION_GUST REUNION_GUST_PER USA_SEAHGT USA_SEARAD_NE USA_SEARAD_SE USA_SEARAD_SW USA_SEARAD_NW STORM_SPEED STORM_DIR
1893011S15062 1893 4 SI MM NOT_NAMED 1893-01-11 06:00:00 NR -15.0000 61.8000 reunion main 717 717 _____O________ -1 -15.0000 61.8000 99 9.90000 1 230
1893011S15062 1893 4 SI MM NOT_NAMED 1893-01-11 09:00:00 NR -15.0256 61.7622 main 717 701 _____P________ -1 -15.0256 61.7622 99 1 237
1893011S15062 1893 4 SI MM NOT_NAMED 1893-01-11 12:00:00 NR -15.0524 61.7185 main 701 701 _____P________ -1 -15.0524 61.7185 99 1 240
1893011S15062 1893 4 SI MM NOT_NAMED 1893-01-11 15:00:00 NR -15.0814 61.6630 main 701 695 _____P________ -1 -15.0814 61.6630 99 1 243
1893011S15062 1893 4 SI MM NOT_NAMED 1893-01-11 18:00:00 NR -15.1138 61.5897 main 695 689 _____P________ -1 -15.1138 61.5897 99 2 247
1893011S15062 1893 4 SI MM NOT_NAMED 1893-01-11 21:00:00 NR -15.1508 61.4927 main 680 673 _____P________ -1 -15.1508 61.4927 99 2 250
1893011S15062 1893 4 SI MM NOT_NAMED 1893-01-12 00:00:00 NR -15.1935 61.3661 main 673 661 _____P________ -1 -15.1935 61.3661 99 3 252
1893011S15062 1893 4 SI MM NOT_NAMED 1893-01-12 03:00:00 NR -15.2428 61.2038 main 661 640 _____P________ -1 -15.2428 61.2038 99 4 253
1893011S15062 1893 4 SI MM NOT_NAMED 1893-01-12 06:00:00 NR -15.3000 61.0000 reunion main 640 619 _____O________ -1 -15.3000 61.0000 99 9.90000 5 254
1893011S15062 1893 4 SI MM NOT_NAMED 1893-01-12 09:00:00 NR -15.3659 60.7510 main 619 603 _____P________ -1 -15.3659 60.7510 99 5 255
1893011S15062 1893 4 SI MM NOT_NAMED 1893-01-12 12:00:00 NR -15.4408 60.4631 main 603 578 _____P________ -1 -15.4408 60.4631 99 6 255
1893011S15062 1893 4 SI MM NOT_NAMED 1893-01-12 15:00:00 NR -15.5251 60.1448 main 573 550 _____P________ -1 -15.5251 60.1448 99 7 254
1893011S15062 1893 4 SI MM NOT_NAMED 1893-01-12 18:00:00 NR -15.6191 59.8048 main 550 527 _____P________ -1 -15.6191 59.8048 99 7 253
1893011S15062 1893 4 SI MM NOT_NAMED 1893-01-12 21:00:00 NR -15.7231 59.4517 main 527 503 _____P________ -1 -15.7231 59.4517 99 7 252
1893011S15062 1893 4 SI MM NOT_NAMED 1893-01-13 00:00:00 NR -15.8376 59.0941 main 503 473 _____P________ -1 -15.8376 59.0941 99 7 251
1893011S15062 1893 4 SI MM NOT_NAMED 1893-01-13 03:00:00 NR -15.9631 58.7406 main 470 453 _____P________ -1 -15.9631 58.7406 99 7 249
1893011S15062 1893 4 SI MM NOT_NAMED 1893-01-13 06:00:00 NR -16.1000 58.4000 reunion main 453 438 _____O________ -1 -16.1000 58.4000 99 9.90000 7 247
1893011S15062 1893 4 SI MM NOT_NAMED 1893-01-13 09:00:00 NR -16.2416 58.0423 main 437 413 _____P________ -1 -16.2416 58.0423 99 7 247
1893011S15062 1893 4 SI MM NOT_NAMED 1893-01-13 12:00:00 NR -16.3952 57.6850 main 413 391 _____P________ -1 -16.3952 57.6850 99 7 245
1893011S15062 1893 4 SI MM NOT_NAMED 1893-01-13 15:00:00 NR -16.5595 57.3397 main 392 381 _____P________ -1 -16.5595 57.3397 99 7 242
1893011S15062 1893 4 SI MM NOT_NAMED 1893-01-13 18:00:00 NR -16.7332 57.0179 main 384 365 _____P________ -1 -16.7332 57.0179 99 7 239
1893011S15062 1893 4 SI MM NOT_NAMED 1893-01-13 21:00:00 NR -16.9152 56.7314 main 367 348 _____P________ -1 -16.9152 56.7314 99 6 234
1893011S15062 1893 4 SI MM NOT_NAMED 1893-01-14 00:00:00 NR -17.1044 56.4917 main 351 337 _____P________ -1 -17.1044 56.4917 99 6 226
1893011S15062 1893 4 SI MM NOT_NAMED 1893-01-14 03:00:00 NR -17.2997 56.3106 main 337 321 _____P________ -1 -17.2997 56.3106 99 5 215
1893011S15062 1893 4 SI MM NOT_NAMED 1893-01-14 06:00:00 NR -17.5000 56.2000 reunion main 321 301 _____O________ -1 -17.5000 56.2000 99 9.90000 4 197
1893011S15062 1893 4 SI MM NOT_NAMED 1893-01-14 09:00:00 NR -17.7152 56.1811 main 301 281 _____P________ -1 -17.7152 56.1811 99 4 175
1893011S15062 1893 4 SI MM NOT_NAMED 1893-01-14 12:00:00 NR -17.9392 56.2330 main 281 247 _____P________ -1 -17.9392 56.2330 99 5 162
1893011S15062 1893 4 SI MM NOT_NAMED 1893-01-14 15:00:00 NR -18.1671 56.3445 main 247 217 _____P________ -1 -18.1671 56.3445 99 5 151
1893011S15062 1893 4 SI MM NOT_NAMED 1893-01-14 18:00:00 NR -18.3943 56.5044 main 217 187 _____P________ -1 -18.3943 56.5044 99 6 143
1893011S15062 1893 4 SI MM NOT_NAMED 1893-01-14 21:00:00 NR -18.6159 56.7013 main 187 158 _____P________ -1 -18.6159 56.7013 99 6 137
1893011S15062 1893 4 SI MM NOT_NAMED 1893-01-15 00:00:00 NR -18.8272 56.9239 main 158 129 _____P________ -1 -18.8272 56.9239 99 6 133
1893011S15062 1893 4 SI MM NOT_NAMED 1893-01-15 03:00:00 NR -19.0235 57.1606 main 126 101 _____P________ -1 -19.0235 57.1606 99 6 130
1893011S15062 1893 4 SI MM NOT_NAMED 1893-01-15 06:00:00 NR -19.2000 57.4000 reunion main 101 89 _____O________ -1 -19.2000 57.4000 99 9.90000 5 128
1893011S15062 1893 4 SI MM NOT_NAMED 1893-01-15 09:00:00 NR -19.3379 57.5841 main 89 67 _____P________ -1 -19.3379 57.5841 99 4 126
1893011S15062 1893 4 SI MM NOT_NAMED 1893-01-15 12:00:00 NR -19.4564 57.7779 main 67 64 _____P________ -1 -19.4564 57.7779 99 4 121
1893011S15062 1893 4 SI MM NOT_NAMED 1893-01-15 15:00:00 NR -19.5597 57.9806 main 64 64 _____P________ -1 -19.5597 57.9806 99 4 117
1893011S15062 1893 4 SI MM NOT_NAMED 1893-01-15 18:00:00 NR -19.6522 58.1914 main 68 68 _____P________ -1 -19.6522 58.1914 99 4 114
1893011S15062 1893 4 SI MM NOT_NAMED 1893-01-15 21:00:00 NR -19.7382 58.4096 main 85 80 _____P________ -1 -19.7382 58.4096 99 5 112
1893011S15062 1893 4 SI MM NOT_NAMED 1893-01-16 00:00:00 NR -19.8219 58.6342 main 99 99 _____P________ -1 -19.8219 58.6342 99 5 112
1893011S15062 1893 4 SI MM NOT_NAMED 1893-01-16 03:00:00 NR -19.9077 58.8646 main 123 123 _____P________ -1 -19.9077 58.8646 99 5 112
1893011S15062 1893 4 SI MM NOT_NAMED 1893-01-16 06:00:00 NR -20.0000 59.1000 reunion main 139 139 _____O________ -1 -20.0000 59.1000 99 9.90000 5 115
1893011S15062 1893 4 SI MM NOT_NAMED 1893-01-16 09:00:00 NR -20.1294 59.3604 main 168 167 _____P________ -1 -20.1294 59.3604 99 6 118
1893011S15062 1893 4 SI MM NOT_NAMED 1893-01-16 12:00:00 NR -20.2648 59.6303 main 187 187 _____P________ -1 -20.2648 59.6303 99 6 118
1893011S15062 1893 4 SI MM NOT_NAMED 1893-01-16 15:00:00 NR -20.4023 59.9034 main 219 219 _____P________ -1 -20.4023 59.9034 99 6 118
1893011S15062 1893 4 SI MM NOT_NAMED 1893-01-16 18:00:00 NR -20.5386 60.1736 main 251 251 _____P________ -1 -20.5386 60.1736 99 6 118
1893011S15062 1893 4 SI MM NOT_NAMED 1893-01-16 21:00:00 NR -20.6700 60.4346 main 274 274 _____P________ -1 -20.6700 60.4346 99 5 118
1893011S15062 1893 4 SI MM NOT_NAMED 1893-01-17 00:00:00 NR -20.7930 60.6803 main 307 307 _____P________ -1 -20.7930 60.6803 99 5 118
1893011S15062 1893 4 SI MM NOT_NAMED 1893-01-17 03:00:00 NR -20.9041 60.9042 main 329 329 _____P________ -1 -20.9041 60.9042 99 4 118
1893011S15062 1893 4 SI MM NOT_NAMED 1893-01-17 06:00:00 NR -21.0000 61.1000 reunion main 352 352 _____O________ -1 -21.0000 61.1000 99 9.90000 4 117
1893011S15062 1893 4 SI MM NOT_NAMED 1893-01-17 09:00:00 NR -21.0781 61.2632 main 374 374 _____P________ -1 -21.0781 61.2632 99 3 117
1893011S15062 1893 4 SI MM NOT_NAMED 1893-01-17 12:00:00 NR -21.1399 61.3961 main 384 384 _____P________ -1 -21.1399 61.3961 99 2 116
1893011S15062 1893 4 SI MM NOT_NAMED 1893-01-17 15:00:00 NR -21.1878 61.5032 main 397 397 _____P________ -1 -21.1878 61.5032 99 2 115
1893011S15062 1893 4 SI MM NOT_NAMED 1893-01-17 18:00:00 NR -21.2241 61.5885 main 407 407 _____P________ -1 -21.2241 61.5885 99 2 114
1893011S15062 1893 4 SI MM NOT_NAMED 1893-01-17 21:00:00 NR -21.2512 61.6566 main 420 420 _____P________ -1 -21.2512 61.6566 99 1 113
1893011S15062 1893 4 SI MM NOT_NAMED 1893-01-18 00:00:00 NR -21.2713 61.7116 main 420 420 _____P________ -1 -21.2713 61.7116 99 1 110
1893011S15062 1893 4 SI MM NOT_NAMED 1893-01-18 03:00:00 NR -21.2868 61.7580 main 430 430 _____P________ -1 -21.2868 61.7580 99 1 109
1893011S15062 1893 4 SI MM NOT_NAMED 1893-01-18 06:00:00 NR -21.3000 61.8000 reunion main 430 _____O________ -1 -21.3000 61.8000 99 9.90000 1 109

IBTrACS Databaseについて

本データベースは、米国NOAAが公開する1842年以降の世界の熱帯低気圧のベストトラックデータアーカイブInternational Best Track Archive for Climate Stewardship (IBTrACS)を、ウェブで閲覧しやすい形式に変換したものです。

最終更新日:2021-12-01